sensor_id;sensor_type;location;lat;lon;timestamp;pressure;altitude;pressure_sealevel;temperature;humidity
68873;BME280;55907;50.806;12.882;2023-02-19T00:01:12;973.3;;;8.6;89.6
68873;BME280;55907;50.806;12.882;2023-02-19T00:04:14;973.4;;;8.6;89.8
68873;BME280;55907;50.806;12.882;2023-02-19T00:07:14;973.3;;;8.6;89.3
68873;BME280;55907;50.806;12.882;2023-02-19T00:10:15;973.4;;;8.6;89.3
68873;BME280;55907;50.806;12.882;2023-02-19T00:13:17;973.3;;;8.6;88.8
68873;BME280;55907;50.806;12.882;2023-02-19T00:16:22;973.2;;;8.6;88.8
68873;BME280;55907;50.806;12.882;2023-02-19T00:19:20;973.2;;;8.6;88.4
68873;BME280;55907;50.806;12.882;2023-02-19T00:22:22;973.2;;;8.6;88.4
68873;BME280;55907;50.806;12.882;2023-02-19T00:25:23;973.1;;;8.6;87.6
68873;BME280;55907;50.806;12.882;2023-02-19T00:31:27;973.1;;;8.6;87.6
68873;BME280;55907;50.806;12.882;2023-02-19T00:34:28;973.1;;;8.6;87.4
68873;BME280;55907;50.806;12.882;2023-02-19T00:43:32;973.0;;;8.7;86.8
68873;BME280;55907;50.806;12.882;2023-02-19T00:46:36;973.0;;;8.6;87.3
68873;BME280;55907;50.806;12.882;2023-02-19T00:49:35;972.9;;;8.7;87.3
68873;BME280;55907;50.806;12.882;2023-02-19T00:52:37;972.8;;;8.7;87.1
68873;BME280;55907;50.806;12.882;2023-02-19T00:55:38;972.9;;;8.6;87.3
68873;BME280;55907;50.806;12.882;2023-02-19T00:58:40;972.8;;;8.6;87.5
68873;BME280;55907;50.806;12.882;2023-02-19T01:01:42;972.7;;;8.6;88.1
68873;BME280;55907;50.806;12.882;2023-02-19T01:04:43;972.8;;;8.6;89.0
68873;BME280;55907;50.806;12.882;2023-02-19T01:07:44;972.7;;;8.6;89.8
68873;BME280;55907;50.806;12.882;2023-02-19T01:10:46;972.7;;;8.5;92.1
68873;BME280;55907;50.806;12.882;2023-02-19T01:13:47;972.7;;;8.4;93.3
68873;BME280;55907;50.806;12.882;2023-02-19T01:16:49;972.6;;;8.3;96.0
68873;BME280;55907;50.806;12.882;2023-02-19T01:19:50;972.6;;;8.2;97.0
68873;BME280;55907;50.806;12.882;2023-02-19T01:22:52;972.4;;;8.1;98.3
68873;BME280;55907;50.806;12.882;2023-02-19T01:25:53;972.3;;;8.1;99.0
68873;BME280;55907;50.806;12.882;2023-02-19T01:28:55;972.2;;;8.2;98.7
68873;BME280;55907;50.806;12.882;2023-02-19T01:31:57;972.1;;;8.2;98.8
68873;BME280;55907;50.806;12.882;2023-02-19T01:34:58;972.2;;;8.2;98.9
68873;BME280;55907;50.806;12.882;2023-02-19T01:37:59;972.0;;;8.2;98.8
68873;BME280;55907;50.806;12.882;2023-02-19T01:41:03;972.0;;;8.2;98.2
68873;BME280;55907;50.806;12.882;2023-02-19T01:47:04;971.8;;;8.2;98.3
68873;BME280;55907;50.806;12.882;2023-02-19T01:53:09;971.6;;;8.1;97.6
68873;BME280;55907;50.806;12.882;2023-02-19T01:56:09;971.7;;;8.1;97.9
68873;BME280;55907;50.806;12.882;2023-02-19T01:59:11;971.7;;;8.1;97.8
68873;BME280;55907;50.806;12.882;2023-02-19T02:02:11;971.6;;;8.1;97.8
68873;BME280;55907;50.806;12.882;2023-02-19T02:05:18;971.6;;;8.1;98.0
68873;BME280;55907;50.806;12.882;2023-02-19T02:08:16;971.6;;;8.1;98.4
68873;BME280;55907;50.806;12.882;2023-02-19T02:14:20;971.4;;;8.1;98.4
68873;BME280;55907;50.806;12.882;2023-02-19T02:17:24;971.4;;;8.1;97.9
68873;BME280;55907;50.806;12.882;2023-02-19T02:23:28;971.3;;;8.1;97.6
68873;BME280;55907;50.806;12.882;2023-02-19T02:26:34;971.3;;;8.1;98.0
68873;BME280;55907;50.806;12.882;2023-02-19T02:32:31;971.0;;;8.1;98.3
68873;BME280;55907;50.806;12.882;2023-02-19T02:35:32;971.1;;;8.1;98.2
68873;BME280;55907;50.806;12.882;2023-02-19T02:38:34;971.0;;;8.1;97.9
68873;BME280;55907;50.806;12.882;2023-02-19T02:41:20;unavailable;;;unavailable;unavailable
68873;BME280;55907;50.806;12.882;2023-02-19T02:41:23;971.0;;;8.1;97.9
68873;BME280;55907;50.806;12.882;2023-02-19T02:41:32;971.0;;;8.1;97.9
68873;BME280;55907;50.806;12.882;2023-02-19T02:46:25;970.8;;;8.2;97.3
68873;BME280;55907;50.806;12.882;2023-02-19T02:47:38;970.8;;;8.2;97.3
68873;BME280;55907;50.806;12.882;2023-02-19T02:50:38;970.9;;;8.4;96.6
68873;BME280;55907;50.806;12.882;2023-02-19T02:51:28;unavailable;;;unavailable;unavailable
68873;BME280;55907;50.806;12.882;2023-02-19T02:51:35;970.8;;;8.4;95.8
68873;BME280;55907;50.806;12.882;2023-02-19T02:53:40;970.7;;;8.4;95.8
68873;BME280;55907;50.806;12.882;2023-02-19T02:56:39;970.8;;;8.5;94.8
68873;BME280;55907;50.806;12.882;2023-02-19T02:59:41;970.9;;;8.5;94.4
68873;BME280;55907;50.806;12.882;2023-02-19T03:02:42;970.8;;;8.5;94.6
68873;BME280;55907;50.806;12.882;2023-02-19T03:03:17;unavailable;;;unavailable;unavailable
68873;BME280;55907;50.806;12.882;2023-02-19T03:05:44;970.8;;;8.4;94.7
68873;BME280;55907;50.806;12.882;2023-02-19T03:08:47;970.7;;;8.4;95.1
68873;BME280;55907;50.806;12.882;2023-02-19T03:11:49;970.7;;;8.3;94.6
68873;BME280;55907;50.806;12.882;2023-02-19T03:14:50;970.7;;;8.3;94.6
68873;BME280;55907;50.806;12.882;2023-02-19T03:17:51;970.6;;;8.3;94.7
68873;BME280;55907;50.806;12.882;2023-02-19T03:20:54;970.4;;;8.2;94.7
68873;BME280;55907;50.806;12.882;2023-02-19T03:23:52;970.6;;;8.2;95.0
68873;BME280;55907;50.806;12.882;2023-02-19T03:26:55;970.5;;;8.2;94.7
68873;BME280;55907;50.806;12.882;2023-02-19T03:29:58;970.6;;;8.2;94.6
68873;BME280;55907;50.806;12.882;2023-02-19T03:32:59;970.5;;;8.2;94.2
68873;BME280;55907;50.806;12.882;2023-02-19T03:36:01;970.5;;;8.2;94.3
68873;BME280;55907;50.806;12.882;2023-02-19T03:39:04;970.2;;;8.2;93.8
68873;BME280;55907;50.806;12.882;2023-02-19T03:42:06;970.4;;;8.2;93.5
68873;BME280;55907;50.806;12.882;2023-02-19T03:45:17;970.4;;;8.2;93.3
68873;BME280;55907;50.806;12.882;2023-02-19T03:48:11;970.2;;;8.2;93.2
68873;BME280;55907;50.806;12.882;2023-02-19T03:51:16;970.3;;;8.2;93.0
68873;BME280;55907;50.806;12.882;2023-02-19T03:54:14;970.3;;;8.2;92.9
68873;BME280;55907;50.806;12.882;2023-02-19T04:00:14;970.3;;;8.2;92.3
68873;BME280;55907;50.806;12.882;2023-02-19T04:03:17;970.3;;;8.3;92.0
68873;BME280;55907;50.806;12.882;2023-02-19T04:12:18;970.2;;;8.3;91.2
68873;BME280;55907;50.806;12.882;2023-02-19T04:15:21;970.2;;;8.4;90.9
68873;BME280;55907;50.806;12.882;2023-02-19T04:18:21;970.2;;;8.4;90.9
68873;BME280;55907;50.806;12.882;2023-02-19T04:21:21;970.1;;;8.4;91.7
68873;BME280;55907;50.806;12.882;2023-02-19T04:24:27;970.1;;;8.4;92.5
68873;BME280;55907;50.806;12.882;2023-02-19T04:27:24;970.2;;;8.4;92.8
68873;BME280;55907;50.806;12.882;2023-02-19T04:30:25;970.2;;;8.4;93.2
68873;BME280;55907;50.806;12.882;2023-02-19T04:33:27;970.2;;;8.4;93.3
68873;BME280;55907;50.806;12.882;2023-02-19T04:36:28;970.2;;;8.4;92.9
68873;BME280;55907;50.806;12.882;2023-02-19T04:39:30;970.2;;;8.4;92.9
68873;BME280;55907;50.806;12.882;2023-02-19T04:42:31;970.2;;;8.4;93.5
68873;BME280;55907;50.806;12.882;2023-02-19T04:45:33;970.2;;;8.4;93.7
68873;BME280;55907;50.806;12.882;2023-02-19T04:51:36;970.2;;;8.4;93.8
68873;BME280;55907;50.806;12.882;2023-02-19T04:54:37;970.3;;;8.4;94.0
68873;BME280;55907;50.806;12.882;2023-02-19T05:00:40;970.2;;;8.3;95.2
68873;BME280;55907;50.806;12.882;2023-02-19T05:03:42;970.3;;;8.3;95.0
68873;BME280;55907;50.806;12.882;2023-02-19T05:06:43;970.1;;;8.3;94.7
68873;BME280;55907;50.806;12.882;2023-02-19T05:09:45;970.1;;;8.3;93.9
68873;BME280;55907;50.806;12.882;2023-02-19T05:12:46;970.0;;;8.3;94.0
68873;BME280;55907;50.806;12.882;2023-02-19T05:15:56;970.1;;;8.3;93.4
68873;BME280;55907;50.806;12.882;2023-02-19T05:18:49;970.1;;;8.3;92.9
68873;BME280;55907;50.806;12.882;2023-02-19T05:21:51;970.1;;;8.4;92.6
68873;BME280;55907;50.806;12.882;2023-02-19T05:24:52;970.2;;;8.4;92.7
68873;BME280;55907;50.806;12.882;2023-02-19T05:33:57;970.2;;;8.4;93.6
68873;BME280;55907;50.806;12.882;2023-02-19T05:36:58;970.2;;;8.4;94.9
68873;BME280;55907;50.806;12.882;2023-02-19T05:40:00;970.2;;;8.3;95.8
68873;BME280;55907;50.806;12.882;2023-02-19T05:46:03;970.3;;;8.2;96.6
68873;BME280;55907;50.806;12.882;2023-02-19T05:49:04;970.4;;;8.2;97.1
68873;BME280;55907;50.806;12.882;2023-02-19T05:52:06;970.4;;;8.2;96.9
68873;BME280;55907;50.806;12.882;2023-02-19T05:55:07;970.5;;;8.2;97.1
68873;BME280;55907;50.806;12.882;2023-02-19T05:58:08;970.6;;;8.2;97.0
68873;BME280;55907;50.806;12.882;2023-02-19T06:01:13;970.6;;;8.2;97.3
68873;BME280;55907;50.806;12.882;2023-02-19T06:04:12;970.7;;;8.2;97.4
68873;BME280;55907;50.806;12.882;2023-02-19T06:07:13;970.7;;;8.1;97.4
68873;BME280;55907;50.806;12.882;2023-02-19T06:10:15;970.8;;;8.1;97.3
68873;BME280;55907;50.806;12.882;2023-02-19T06:22:21;971.1;;;8.1;98.9
68873;BME280;55907;50.806;12.882;2023-02-19T06:25:22;971.3;;;8.1;99.4
68873;BME280;55907;50.806;12.882;2023-02-19T06:28:23;971.2;;;8.1;100.0
68873;BME280;55907;50.806;12.882;2023-02-19T06:31:25;971.2;;;8.0;100.0
68873;BME280;55907;50.806;12.882;2023-02-19T06:34:27;971.4;;;7.9;100.0
68873;BME280;55907;50.806;12.882;2023-02-19T06:37:29;971.5;;;7.8;100.0
68873;BME280;55907;50.806;12.882;2023-02-19T06:40:30;971.4;;;7.7;100.0
68873;BME280;55907;50.806;12.882;2023-02-19T06:43:32;971.3;;;7.6;100.0
68873;BME280;55907;50.806;12.882;2023-02-19T06:46:33;971.3;;;7.6;100.0
68873;BME280;55907;50.806;12.882;2023-02-19T06:49:34;971.3;;;7.6;100.0
68873;BME280;55907;50.806;12.882;2023-02-19T06:52:36;971.4;;;7.6;100.0
68873;BME280;55907;50.806;12.882;2023-02-19T06:55:38;971.4;;;7.6;100.0
68873;BME280;55907;50.806;12.882;2023-02-19T06:58:39;971.5;;;7.6;100.0
68873;BME280;55907;50.806;12.882;2023-02-19T07:01:40;971.6;;;7.6;100.0
68873;BME280;55907;50.806;12.882;2023-02-19T07:04:42;971.7;;;7.6;100.0
68873;BME280;55907;50.806;12.882;2023-02-19T07:07:44;971.6;;;7.6;100.0
68873;BME280;55907;50.806;12.882;2023-02-19T07:10:52;971.5;;;7.6;100.0
68873;BME280;55907;50.806;12.882;2023-02-19T07:13:46;971.6;;;7.6;99.7
68873;BME280;55907;50.806;12.882;2023-02-19T07:16:48;971.6;;;7.6;99.7
68873;BME280;55907;50.806;12.882;2023-02-19T07:19:49;971.7;;;7.5;100.0
68873;BME280;55907;50.806;12.882;2023-02-19T07:22:51;971.7;;;7.5;100.0
68873;BME280;55907;50.806;12.882;2023-02-19T07:25:52;971.8;;;7.6;100.0
68873;BME280;55907;50.806;12.882;2023-02-19T07:28:54;971.7;;;7.6;100.0
68873;BME280;55907;50.806;12.882;2023-02-19T07:31:55;971.9;;;7.6;100.0
68873;BME280;55907;50.806;12.882;2023-02-19T07:34:57;971.8;;;7.5;100.0
68873;BME280;55907;50.806;12.882;2023-02-19T07:37:58;971.9;;;7.6;100.0
68873;BME280;55907;50.806;12.882;2023-02-19T07:41:01;971.9;;;7.7;100.0
68873;BME280;55907;50.806;12.882;2023-02-19T07:44:01;972.0;;;7.7;100.0
68873;BME280;55907;50.806;12.882;2023-02-19T07:47:03;972.0;;;7.8;100.0
68873;BME280;55907;50.806;12.882;2023-02-19T07:50:04;972.1;;;7.8;100.0
68873;BME280;55907;50.806;12.882;2023-02-19T07:53:06;972.1;;;7.8;99.5
68873;BME280;55907;50.806;12.882;2023-02-19T07:59:09;972.1;;;7.8;100.0
68873;BME280;55907;50.806;12.882;2023-02-19T08:02:14;972.1;;;7.8;99.2
68873;BME280;55907;50.806;12.882;2023-02-19T08:05:12;972.2;;;7.8;99.6
68873;BME280;55907;50.806;12.882;2023-02-19T08:08:16;972.1;;;7.7;99.7
68873;BME280;55907;50.806;12.882;2023-02-19T08:11:15;972.2;;;7.7;99.8
68873;BME280;55907;50.806;12.882;2023-02-19T08:14:17;972.2;;;7.7;99.8
68873;BME280;55907;50.806;12.882;2023-02-19T08:17:18;972.3;;;7.6;99.6
68873;BME280;55907;50.806;12.882;2023-02-19T08:20:20;972.3;;;7.6;100.0
68873;BME280;55907;50.806;12.882;2023-02-19T08:23:21;972.3;;;7.6;100.0
68873;BME280;55907;50.806;12.882;2023-02-19T08:26:22;972.3;;;7.7;100.0
68873;BME280;55907;50.806;12.882;2023-02-19T08:29:24;972.4;;;7.7;100.0
68873;BME280;55907;50.806;12.882;2023-02-19T08:32:25;972.5;;;7.7;100.0
68873;BME280;55907;50.806;12.882;2023-02-19T08:35:27;972.5;;;7.6;100.0
68873;BME280;55907;50.806;12.882;2023-02-19T08:38:29;972.5;;;7.6;100.0
68873;BME280;55907;50.806;12.882;2023-02-19T08:41:30;972.6;;;7.6;100.0
68873;BME280;55907;50.806;12.882;2023-02-19T08:44:32;972.7;;;7.7;99.5
68873;BME280;55907;50.806;12.882;2023-02-19T08:47:34;972.7;;;7.6;99.6
68873;BME280;55907;50.806;12.882;2023-02-19T08:50:35;972.8;;;7.5;100.0
68873;BME280;55907;50.806;12.882;2023-02-19T08:53:37;973.0;;;7.5;100.0
68873;BME280;55907;50.806;12.882;2023-02-19T08:59:39;973.3;;;7.7;100.0
68873;BME280;55907;50.806;12.882;2023-02-19T09:02:41;973.6;;;7.4;97.4
68873;BME280;55907;50.806;12.882;2023-02-19T09:05:42;973.7;;;7.0;96.3
68873;BME280;55907;50.806;12.882;2023-02-19T09:14:47;973.9;;;6.3;97.0
68873;BME280;55907;50.806;12.882;2023-02-19T09:17:50;974.0;;;6.3;96.4
68873;BME280;55907;50.806;12.882;2023-02-19T09:20:50;974.1;;;6.2;95.6
68873;BME280;55907;50.806;12.882;2023-02-19T09:23:51;974.2;;;6.0;96.3
68873;BME280;55907;50.806;12.882;2023-02-19T09:26:54;974.2;;;6.0;96.5
68873;BME280;55907;50.806;12.882;2023-02-19T09:29:54;974.3;;;6.0;96.5
68873;BME280;55907;50.806;12.882;2023-02-19T09:39:00;974.4;;;5.9;97.5
68873;BME280;55907;50.806;12.882;2023-02-19T09:42:03;974.6;;;5.8;96.9
68873;BME280;55907;50.806;12.882;2023-02-19T09:48:04;974.7;;;5.5;98.5
68873;BME280;55907;50.806;12.882;2023-02-19T09:51:07;974.8;;;5.4;99.1
68873;BME280;55907;50.806;12.882;2023-02-19T09:54:12;974.8;;;5.3;98.6
68873;BME280;55907;50.806;12.882;2023-02-19T09:57:14;974.9;;;5.3;97.1
68873;BME280;55907;50.806;12.882;2023-02-19T10:00:20;975.0;;;5.2;96.4
68873;BME280;55907;50.806;12.882;2023-02-19T10:03:18;975.0;;;5.2;96.2
68873;BME280;55907;50.806;12.882;2023-02-19T10:06:17;975.2;;;5.1;97.0
68873;BME280;55907;50.806;12.882;2023-02-19T10:09:21;975.3;;;5.1;97.1
68873;BME280;55907;50.806;12.882;2023-02-19T10:12:19;975.4;;;5.0;96.5
68873;BME280;55907;50.806;12.882;2023-02-19T10:18:21;975.6;;;4.8;95.1
68873;BME280;55907;50.806;12.882;2023-02-19T10:21:22;975.6;;;4.7;96.1
68873;BME280;55907;50.806;12.882;2023-02-19T10:24:25;975.6;;;4.7;96.6
68873;BME280;55907;50.806;12.882;2023-02-19T10:27:25;975.7;;;4.7;96.2
68873;BME280;55907;50.806;12.882;2023-02-19T10:30:28;975.8;;;4.7;95.0
68873;BME280;55907;50.806;12.882;2023-02-19T10:33:27;975.8;;;4.6;95.5
68873;BME280;55907;50.806;12.882;2023-02-19T10:36:31;976.0;;;4.6;95.7
68873;BME280;55907;50.806;12.882;2023-02-19T10:39:37;976.1;;;4.6;95.9
68873;BME280;55907;50.806;12.882;2023-02-19T10:42:31;976.1;;;4.4;94.4
68873;BME280;55907;50.806;12.882;2023-02-19T10:45:37;976.2;;;4.5;94.7
68873;BME280;55907;50.806;12.882;2023-02-19T10:48:36;976.3;;;4.5;93.9
68873;BME280;55907;50.806;12.882;2023-02-19T10:51:38;976.3;;;4.4;93.7
68873;BME280;55907;50.806;12.882;2023-02-19T10:54:37;976.4;;;4.4;94.3
68873;BME280;55907;50.806;12.882;2023-02-19T10:57:39;976.5;;;4.5;94.0
68873;BME280;55907;50.806;12.882;2023-02-19T11:03:42;976.5;;;4.3;93.8
68873;BME280;55907;50.806;12.882;2023-02-19T11:06:44;976.5;;;4.5;94.8
68873;BME280;55907;50.806;12.882;2023-02-19T11:09:48;976.6;;;4.7;93.4
68873;BME280;55907;50.806;12.882;2023-02-19T11:12:48;976.6;;;4.8;92.9
68873;BME280;55907;50.806;12.882;2023-02-19T11:15:50;976.7;;;5.0;93.4
68873;BME280;55907;50.806;12.882;2023-02-19T11:18:55;976.7;;;5.2;92.9
68873;BME280;55907;50.806;12.882;2023-02-19T11:21:52;976.7;;;5.3;92.3
68873;BME280;55907;50.806;12.882;2023-02-19T11:24:53;976.8;;;5.4;89.2
68873;BME280;55907;50.806;12.882;2023-02-19T11:27:56;976.8;;;5.3;87.3
68873;BME280;55907;50.806;12.882;2023-02-19T11:33:59;976.9;;;5.3;89.1
68873;BME280;55907;50.806;12.882;2023-02-19T11:37:08;976.9;;;5.5;89.1
68873;BME280;55907;50.806;12.882;2023-02-19T11:40:00;976.9;;;5.7;89.4
68873;BME280;55907;50.806;12.882;2023-02-19T11:43:06;976.9;;;5.8;87.7
68873;BME280;55907;50.806;12.882;2023-02-19T11:46:07;976.9;;;5.8;85.1
68873;BME280;55907;50.806;12.882;2023-02-19T11:49:13;977.0;;;5.7;86.2
68873;BME280;55907;50.806;12.882;2023-02-19T11:52:13;977.1;;;5.6;85.9
68873;BME280;55907;50.806;12.882;2023-02-19T11:55:14;977.1;;;5.7;86.5
68873;BME280;55907;50.806;12.882;2023-02-19T11:58:21;977.1;;;5.6;87.0
68873;BME280;55907;50.806;12.882;2023-02-19T12:01:18;977.2;;;5.5;87.0
68873;BME280;55907;50.806;12.882;2023-02-19T12:03:00;unavailable;;;unavailable;unavailable
68873;BME280;55907;50.806;12.882;2023-02-19T12:03:40;977.2;;;5.5;87.5
68873;BME280;55907;50.806;12.882;2023-02-19T12:04:27;977.2;;;5.6;88.2
68873;BME280;55907;50.806;12.882;2023-02-19T12:06:30;977.2;;;5.6;87.2
68873;BME280;55907;50.806;12.882;2023-02-19T12:07:20;977.2;;;5.6;87.2
68873;BME280;55907;50.806;12.882;2023-02-19T12:10:18;977.2;;;5.9;86.6
68873;BME280;55907;50.806;12.882;2023-02-19T12:13:23;977.1;;;6.2;85.7
68873;BME280;55907;50.806;12.882;2023-02-19T12:16:22;977.3;;;6.3;83.7
68873;BME280;55907;50.806;12.882;2023-02-19T12:19:29;977.3;;;6.2;80.9
68873;BME280;55907;50.806;12.882;2023-02-19T12:25:33;977.4;;;6.0;79.8
68873;BME280;55907;50.806;12.882;2023-02-19T12:28:33;977.4;;;5.8;79.5
68873;BME280;55907;50.806;12.882;2023-02-19T12:31:41;977.4;;;5.6;80.9
68873;BME280;55907;50.806;12.882;2023-02-19T12:37:37;977.4;;;5.6;83.9
68873;BME280;55907;50.806;12.882;2023-02-19T12:40:37;977.6;;;5.8;83.0
68873;BME280;55907;50.806;12.882;2023-02-19T12:43:33;977.6;;;5.9;82.4
68873;BME280;55907;50.806;12.882;2023-02-19T12:46:36;977.7;;;6.0;81.7
68873;BME280;55907;50.806;12.882;2023-02-19T12:49:38;977.6;;;6.1;81.7
68873;BME280;55907;50.806;12.882;2023-02-19T12:52:40;977.7;;;6.1;82.8
68873;BME280;55907;50.806;12.882;2023-02-19T12:55:41;977.6;;;6.2;82.5
68873;BME280;55907;50.806;12.882;2023-02-19T12:58:43;977.7;;;6.2;80.5
68873;BME280;55907;50.806;12.882;2023-02-19T13:01:45;977.7;;;6.2;78.8
68873;BME280;55907;50.806;12.882;2023-02-19T13:04:46;977.7;;;6.1;78.9
68873;BME280;55907;50.806;12.882;2023-02-19T13:07:51;977.8;;;6.1;79.2
68873;BME280;55907;50.806;12.882;2023-02-19T13:10:50;977.8;;;6.2;80.8
68873;BME280;55907;50.806;12.882;2023-02-19T13:13:51;977.8;;;6.2;81.3
68873;BME280;55907;50.806;12.882;2023-02-19T13:16:53;977.8;;;6.3;80.5
68873;BME280;55907;50.806;12.882;2023-02-19T13:19:55;977.8;;;6.2;79.4
68873;BME280;55907;50.806;12.882;2023-02-19T13:22:59;977.8;;;6.2;78.1
68873;BME280;55907;50.806;12.882;2023-02-19T13:26:08;977.7;;;6.1;78.1
68873;BME280;55907;50.806;12.882;2023-02-19T13:29:03;977.8;;;6.1;78.4
68873;BME280;55907;50.806;12.882;2023-02-19T13:32:11;977.8;;;6.1;78.9
68873;BME280;55907;50.806;12.882;2023-02-19T13:35:15;977.8;;;6.1;79.3
68873;BME280;55907;50.806;12.882;2023-02-19T13:38:01;977.9;;;6.0;79.4
68873;BME280;55907;50.806;12.882;2023-02-19T13:44:05;978.0;;;5.9;77.6
68873;BME280;55907;50.806;12.882;2023-02-19T13:47:04;977.9;;;5.9;78.2
68873;BME280;55907;50.806;12.882;2023-02-19T13:50:11;978.0;;;6.0;79.1
68873;BME280;55907;50.806;12.882;2023-02-19T13:59:20;978.0;;;6.1;77.5
68873;BME280;55907;50.806;12.882;2023-02-19T14:02:24;978.1;;;6.1;77.1
68873;BME280;55907;50.806;12.882;2023-02-19T14:05:15;978.1;;;6.0;77.0
68873;BME280;55907;50.806;12.882;2023-02-19T14:11:17;978.2;;;5.9;78.1
68873;BME280;55907;50.806;12.882;2023-02-19T14:14:27;unavailable;;;unavailable;unavailable
68873;BME280;55907;50.806;12.882;2023-02-19T14:17:37;978.2;;;6.1;77.4
68873;BME280;55907;50.806;12.882;2023-02-19T14:19:59;unavailable;;;unavailable;unavailable
68873;BME280;55907;50.806;12.882;2023-02-19T14:21:11;unavailable;;;unavailable;unavailable
68873;BME280;55907;50.806;12.882;2023-02-19T14:23:22;978.3;;;6.3;75.1
68873;BME280;55907;50.806;12.882;2023-02-19T14:24:10;978.3;;;6.3;75.1
68873;BME280;55907;50.806;12.882;2023-02-19T14:26:25;978.3;;;6.4;74.6
68873;BME280;55907;50.806;12.882;2023-02-19T14:26:36;unavailable;;;unavailable;unavailable
68873;BME280;55907;50.806;12.882;2023-02-19T14:27:42;unavailable;;;unavailable;unavailable
68873;BME280;55907;50.806;12.882;2023-02-19T14:27:43;978.3;;;6.3;74.4
68873;BME280;55907;50.806;12.882;2023-02-19T14:29:26;978.4;;;6.5;75.1
68873;BME280;55907;50.806;12.882;2023-02-19T14:29:56;unavailable;;;unavailable;unavailable
68873;BME280;55907;50.806;12.882;2023-02-19T14:29:58;978.4;;;6.5;75.1
68873;BME280;55907;50.806;12.882;2023-02-19T14:32:27;978.3;;;6.7;74.8
68873;BME280;55907;50.806;12.882;2023-02-19T14:35:32;978.3;;;6.9;74.0
68873;BME280;55907;50.806;12.882;2023-02-19T14:38:34;978.3;;;6.9;73.8
68873;BME280;55907;50.806;12.882;2023-02-19T14:41:02;unavailable;;;unavailable;unavailable
68873;BME280;55907;50.806;12.882;2023-02-19T14:41:33;978.3;;;6.9;74.0
68873;BME280;55907;50.806;12.882;2023-02-19T14:47:35;978.4;;;6.6;75.3
68873;BME280;55907;50.806;12.882;2023-02-19T14:50:36;978.4;;;6.6;74.9
68873;BME280;55907;50.806;12.882;2023-02-19T14:53:40;978.4;;;6.5;73.5
68873;BME280;55907;50.806;12.882;2023-02-19T14:56:39;978.4;;;6.4;72.9
68873;BME280;55907;50.806;12.882;2023-02-19T14:59:50;978.5;;;6.3;72.8
68873;BME280;55907;50.806;12.882;2023-02-19T15:02:42;978.6;;;6.3;72.5
68873;BME280;55907;50.806;12.882;2023-02-19T15:05:43;978.6;;;6.2;72.6
68873;BME280;55907;50.806;12.882;2023-02-19T15:08:47;978.7;;;6.2;71.9
68873;BME280;55907;50.806;12.882;2023-02-19T15:11:47;978.6;;;6.1;72.0
68873;BME280;55907;50.806;12.882;2023-02-19T15:14:54;978.7;;;5.9;73.3
68873;BME280;55907;50.806;12.882;2023-02-19T15:17:50;978.7;;;5.7;72.4
68873;BME280;55907;50.806;12.882;2023-02-19T15:20:57;978.7;;;5.7;73.4
68873;BME280;55907;50.806;12.882;2023-02-19T15:23:54;978.7;;;5.8;73.9
68873;BME280;55907;50.806;12.882;2023-02-19T15:26:54;978.7;;;5.8;74.1
68873;BME280;55907;50.806;12.882;2023-02-19T15:29:55;978.7;;;5.8;74.7
68873;BME280;55907;50.806;12.882;2023-02-19T15:32:59;978.8;;;5.9;74.7
68873;BME280;55907;50.806;12.882;2023-02-19T15:36:00;978.8;;;5.9;74.5
68873;BME280;55907;50.806;12.882;2023-02-19T15:39:01;978.8;;;5.9;74.2
68873;BME280;55907;50.806;12.882;2023-02-19T15:42:03;978.9;;;5.8;74.3
68873;BME280;55907;50.806;12.882;2023-02-19T15:45:08;978.9;;;5.7;74.6
68873;BME280;55907;50.806;12.882;2023-02-19T15:48:07;978.9;;;5.6;75.5
68873;BME280;55907;50.806;12.882;2023-02-19T15:51:12;978.9;;;5.5;75.2
68873;BME280;55907;50.806;12.882;2023-02-19T15:54:15;978.9;;;5.3;75.8
68873;BME280;55907;50.806;12.882;2023-02-19T15:57:14;978.9;;;5.2;76.2
68873;BME280;55907;50.806;12.882;2023-02-19T16:00:14;978.9;;;5.1;77.8
68873;BME280;55907;50.806;12.882;2023-02-19T16:03:17;979.0;;;5.0;78.3
68873;BME280;55907;50.806;12.882;2023-02-19T16:06:16;978.9;;;5.0;78.1
68873;BME280;55907;50.806;12.882;2023-02-19T16:09:19;978.9;;;4.9;79.1
68873;BME280;55907;50.806;12.882;2023-02-19T16:12:19;978.9;;;4.8;79.5
68873;BME280;55907;50.806;12.882;2023-02-19T16:15:19;978.9;;;4.8;77.8
68873;BME280;55907;50.806;12.882;2023-02-19T16:18:20;979.0;;;4.7;77.8
68873;BME280;55907;50.806;12.882;2023-02-19T16:21:23;979.0;;;4.7;77.2
68873;BME280;55907;50.806;12.882;2023-02-19T16:24:27;979.1;;;4.6;77.3
68873;BME280;55907;50.806;12.882;2023-02-19T16:27:29;979.1;;;4.6;77.6
68873;BME280;55907;50.806;12.882;2023-02-19T16:30:29;979.2;;;4.5;77.2
68873;BME280;55907;50.806;12.882;2023-02-19T16:33:32;979.2;;;4.5;77.4
68873;BME280;55907;50.806;12.882;2023-02-19T16:36:37;979.3;;;4.4;77.7
68873;BME280;55907;50.806;12.882;2023-02-19T16:39:30;979.3;;;4.4;77.5
68873;BME280;55907;50.806;12.882;2023-02-19T16:42:32;979.4;;;4.4;77.5
68873;BME280;55907;50.806;12.882;2023-02-19T16:45:33;979.4;;;4.3;77.7
68873;BME280;55907;50.806;12.882;2023-02-19T16:48:35;979.4;;;4.2;78.0
68873;BME280;55907;50.806;12.882;2023-02-19T16:51:37;979.4;;;4.2;78.4
68873;BME280;55907;50.806;12.882;2023-02-19T16:54:38;979.5;;;4.1;78.4
68873;BME280;55907;50.806;12.882;2023-02-19T16:57:40;979.6;;;4.0;78.8
68873;BME280;55907;50.806;12.882;2023-02-19T17:00:41;979.6;;;3.8;79.3
68873;BME280;55907;50.806;12.882;2023-02-19T17:03:43;979.6;;;3.7;80.1
68873;BME280;55907;50.806;12.882;2023-02-19T17:05:52;unavailable;;;unavailable;unavailable
68873;BME280;55907;50.806;12.882;2023-02-19T17:06:01;979.7;;;3.7;80.4
68873;BME280;55907;50.806;12.882;2023-02-19T17:06:45;979.7;;;3.7;80.2
68873;BME280;55907;50.806;12.882;2023-02-19T17:09:46;979.8;;;3.7;80.4
68873;BME280;55907;50.806;12.882;2023-02-19T17:12:47;979.9;;;3.8;80.2
68873;BME280;55907;50.806;12.882;2023-02-19T17:15:49;979.9;;;3.7;80.4
68873;BME280;55907;50.806;12.882;2023-02-19T17:18:51;979.9;;;3.7;80.5
68873;BME280;55907;50.806;12.882;2023-02-19T17:21:52;979.9;;;3.6;80.9
68873;BME280;55907;50.806;12.882;2023-02-19T17:24:53;980.0;;;3.6;81.3
68873;BME280;55907;50.806;12.882;2023-02-19T17:27:55;980.1;;;3.5;81.6
68873;BME280;55907;50.806;12.882;2023-02-19T17:30:56;980.0;;;3.4;81.8
68873;BME280;55907;50.806;12.882;2023-02-19T17:33:58;980.1;;;3.4;82.0
68873;BME280;55907;50.806;12.882;2023-02-19T17:37:00;980.1;;;3.3;82.0
68873;BME280;55907;50.806;12.882;2023-02-19T17:40:01;980.1;;;3.3;81.8
68873;BME280;55907;50.806;12.882;2023-02-19T17:43:03;980.2;;;3.2;81.8
68873;BME280;55907;50.806;12.882;2023-02-19T17:46:04;980.2;;;3.2;82.5
68873;BME280;55907;50.806;12.882;2023-02-19T17:49:06;980.1;;;3.2;83.2
68873;BME280;55907;50.806;12.882;2023-02-19T17:52:07;980.1;;;3.1;83.0